Latest Coastal Weather Observations for Newcastle Nobbys

IDN60701

Issued at 5:21 am EDT Friday 24 February 2017 (issued every 10 minutes, with the page automatically refreshed every 10 minutes)

About coastal observations | Map of coastal stations | Coastal observations for NSW | Marine services | Other Formats
Station Details ID: 061055 Name: NEWCASTLE NOBBYS SIGNAL STATION AWS Lat: -32.92 Lon: 151.80 Height: 33.0 m
Data from the previous 72 hours. | See also: Recent months at Newcastle Nobbys
Date/Time
EDT
Temp
°C
Wind Pressure Rain since
9am
mm
Weather Cloud Vis
km
Sea
Height
m
Swell
Dir  Spd
kts
Gust
kts
hPa Trend Height
m
Period
s
Dir
24/05:00am 19.7 ENE 4 5 - - 0.0 - - - - - - -
24/04:30am 19.8 ENE 5 6 - - 0.0 - - - - - - -
24/04:00am 20.0 E 4 6 - - 0.0 - - - - - - -
24/03:30am 20.2 ESE 4 5 - - 0.0 - - - - - - -
24/03:00am 20.4 SE 3 4 - - 0.0 - - - - - - -
24/02:30am 20.6 E 3 4 - - 0.0 - - - - - - -
24/02:00am 20.7 ENE 5 6 - - 0.0 - - - - - - -
24/01:30am 20.7 ENE 5 7 - - 0.0 - - - - - - -
24/01:00am 20.7 ENE 5 7 - - 0.0 - - - - - - -
24/12:30am 20.9 ENE 5 8 - - 0.0 - - - - - - -
24/12:00am 21.1 ENE 7 9 - - 0.0 - - - - - - -
 
Date/Time
EDT
Temp
°C
Wind Pressure Rain since
9am
mm
Weather Cloud Vis
km
Sea
Height
m
Swell
Dir  Spd
kts
Gust
kts
hPa Trend Height
m
Period
s
Dir
23/11:30pm 21.1 ENE 8 11 - - 0.0 - - - - - - -
23/11:00pm 21.2 NE 7 10 - - 0.0 - - - - - - -
23/10:30pm 21.3 NE 8 11 - - 0.0 - - - - - - -
23/10:00pm 21.6 NE 7 10 - - 0.0 - - - - - - -
23/09:30pm 21.6 NE 6 9 - - 0.0 - - - - - - -
23/09:00pm 21.6 NE 11 15 - - 0.0 - - - - - - -
23/08:30pm 21.8 NE 12 18 - - 0.0 - - - - - - -
23/08:00pm 21.3 ENE 10 13 - - 0.0 - - - - - - -
23/07:30pm 21.5 ENE 13 17 - - 0.0 - - - - - - -
23/07:00pm 21.8 ENE 16 19 - - 0.0 - - - - - - -
23/06:30pm 22.2 ENE 17 21 - - 0.0 - - - - - - -
23/06:00pm 22.5 ENE 18 21 - - 0.0 - - - - - - -
23/05:30pm 22.6 ENE 18 22 - - 0.0 - - - - - - -
23/05:00pm 22.9 ENE 17 21 - - 0.0 - - - - - - -
23/04:30pm 23.1 ENE 16 21 - - 0.0 - - - - - - -
23/04:00pm 23.1 ENE 17 21 - - 0.0 - - - - - - -
23/03:30pm 23.2 ENE 17 21 - - 0.0 - - - - - - -
23/03:00pm 23.3 ENE 18 21 - - 0.0 - - - - - - -
23/02:30pm 23.4 ENE 18 22 - - 0.0 - - - - - - -
23/02:00pm 23.5 ENE 18 21 - - 0.0 - - - - - - -
23/01:30pm 23.6 E 16 20 - - 0.0 - - - - - - -
23/01:00pm 23.7 E 14 17 - - 0.0 - - - - - - -
23/12:30pm 23.8 E 13 15 - - 0.0 - - - - - - -
23/12:00pm 23.7 E 11 13 - - 0.0 - - - - - - -
23/11:30am 23.5 E 9 11 - - 0.0 - - - - - - -
23/11:00am 24.5 ESE 4 6 - - 0.0 - - - - - - -
23/10:30am 25.3 ESE 3 4 - - 0.0 - - - - - - -
23/10:00am 24.5 ESE 2 3 - - 0.0 - - - - - - -
23/09:30am 22.8 ENE 3 6 - - 0.0 - - - - - - -
23/09:00am 22.0 ENE 6 8 - - 0.0 - - - - - - -
23/08:30am 21.1 NE 5 7 - - 0.0 - - - - - - -
23/08:00am 20.7 NE 7 11 - - 0.0 - - - - - - -
23/07:30am 20.4 NE 7 10 - - 0.0 - - - - - - -
23/07:00am 20.1 ENE 7 9 - - 0.0 - - - - - - -
23/06:30am 19.9 NE 7 10 - - 0.0 - - - - - - -
23/06:00am 20.1 NE 8 11 - - 0.0 - - - - - - -
23/05:30am 20.2 ENE 6 8 - - 0.0 - - - - - - -
23/05:00am 20.3 ENE 6 9 - - 0.0 - - - - - - -
23/04:30am 20.5 ENE 7 9 - - 0.0 - - - - - - -
23/04:00am 20.6 NE 8 11 - - 0.0 - - - - - - -
23/03:30am 20.8 ENE 8 11 - - 0.0 - - - - - - -
23/03:00am 20.9 NE 8 11 - - 0.0 - - - - - - -
23/02:30am 21.1 NE 9 12 - - 0.0 - - - - - - -
23/02:00am 21.1 NE 9 14 - - 0.0 - - - - - - -
23/01:30am 21.3 NE 11 15 - - 0.0 - - - - - - -
23/01:00am 21.4 NE 10 14 - - 0.0 - - - - - - -
23/12:30am 21.5 NE 10 13 - - 0.0 - - - - - - -
23/12:00am 21.7 NE 9 14 - - 0.0 - - - - - - -
 
Date/Time
EDT
Temp
°C
Wind Pressure Rain since
9am
mm
Weather Cloud Vis
km
Sea
Height
m
Swell
Dir  Spd
kts
Gust
kts
hPa Trend Height
m
Period
s
Dir
22/11:30pm 21.9 NE 9 12 - - 0.0 - - - - - - -
22/11:00pm 21.9 NE 8 12 - - 0.0 - - - - - - -
22/10:30pm 22.1 NE 10 16 - - 0.0 - - - - - - -
22/10:00pm 22.2 NE 10 15 - - 0.0 - - - - - - -
22/09:30pm 22.5 NE 11 17 - - 0.0 - - - - - - -
22/09:00pm 22.1 NE 14 19 - - 0.0 - - - - - - -
22/08:30pm 22.2 NE 13 18 - - 0.0 - - - - - - -
22/08:00pm 22.5 NE 15 19 - - 0.0 - - - - - - -
22/07:30pm 22.6 ENE 14 18 - - 0.0 - - - - - - -
22/07:00pm 22.8 ENE 17 21 - - 0.0 - - - - - - -
22/06:30pm 23.0 ENE 18 23 - - 0.0 - - - - - - -
22/06:00pm 23.2 ENE 19 23 - - 0.0 - - - - - - -
22/05:30pm 23.4 ENE 19 23 - - 0.0 - - - - - - -
22/05:00pm 23.5 ENE 19 25 - - 0.0 - - - - - - -
22/04:30pm 23.6 ENE 18 25 - - 0.0 - - - - - - -
22/04:00pm 23.7 E 20 25 - - 0.0 - - - - - - -
22/03:30pm 23.7 E 19 24 - - 0.0 - - - - - - -
22/03:00pm 23.9 E 19 23 - - 0.0 - - - - - - -
22/02:30pm 23.9 E 19 22 - - 0.0 - - - - - - -
22/02:00pm 24.1 E 18 21 - - 0.0 - - - - - - -
22/01:30pm 24.1 E 19 21 - - 0.0 - - - - - - -
22/01:00pm 24.1 E 18 21 - - 0.0 - - - - - - -
22/12:30pm 24.1 E 17 20 - - 0.0 - - - - - - -
22/12:00pm 24.1 E 16 19 - - 0.0 - - - - - - -
22/11:30am 24.2 E 12 15 - - 0.0 - - - - - - -
22/11:00am 24.7 E 8 11 - - 0.0 - - - - - - -
22/10:30am 24.7 ENE 8 11 - - 0.0 - - - - - - -
22/10:00am 24.5 ENE 8 11 - - 0.0 - - - - - - -
22/09:30am 23.7 ENE 8 11 - - 0.0 - - - - - - -
22/09:00am 22.5 NE 7 10 - - 0.0 - - - - - - -
22/08:30am 21.8 NE 6 10 - - 0.0 - - - - - - -
22/08:00am 20.8 NE 6 8 - - 0.0 - - - - - - -
22/07:30am 21.0 NE 5 8 - - 0.0 - - - - - - -
22/07:00am 20.8 ENE 5 7 - - 0.0 - - - - - - -
22/06:30am 20.6 ENE 5 7 - - 0.0 - - - - - - -
22/06:00am 20.6 ENE 5 6 - - 0.0 - - - - - - -
22/05:30am 20.7 ENE 7 9 - - 0.0 - - - - - - -
22/05:00am 20.6 ENE 6 7 - - 0.0 - - - - - - -
22/04:30am 20.9 ENE 4 7 - - 0.0 - - - - - - -
22/04:00am 21.0 NE 6 9 - - 0.0 - - - - - - -
22/03:30am 20.9 ENE 6 7 - - 0.0 - - - - - - -
22/03:00am 20.9 ENE 6 8 - - 0.0 - - - - - - -
22/02:30am 20.9 ENE 6 7 - - 0.0 - - - - - - -
22/02:00am 20.9 ENE 6 7 - - 0.0 - - - - - - -
22/01:30am 21.3 ENE 7 8 - - 0.0 - - - - - - -
22/01:00am 21.4 ENE 7 9 - - 0.0 - - - - - - -
22/12:30am 21.4 ENE 7 9 - - 0.0 - - - - - - -
22/12:00am 21.6 ENE 7 9 - - 0.0 - - - - - - -
 
Date/Time
EDT
Temp
°C
Wind Pressure Rain since
9am
mm
Weather Cloud Vis
km
Sea
Height
m
Swell
Dir  Spd
kts
Gust
kts
hPa Trend Height
m
Period
s
Dir
21/11:30pm 21.7 ENE 7 9 - - 0.0 - - - - - - -
21/11:00pm 21.8 ENE 9 12 - - 0.0 - - - - - - -
21/10:30pm 22.0 NE 9 14 - - 0.0 - - - - - - -
21/10:00pm 21.7 NE 9 12 - - 0.0 - - - - - - -
21/09:30pm 21.9 NE 9 12 - - 0.0 - - - - - - -
21/09:00pm 21.8 ENE 10 15 - - 0.0 - - - - - - -
21/08:30pm 22.0 ENE 12 14 - - 0.0 - - - - - - -
21/08:00pm 22.1 ENE 14 17 - - 0.0 - - - - - - -
21/07:30pm 22.5 ENE 15 19 - - 0.0 - - - - - - -
21/07:00pm 22.6 E 15 19 - - 0.0 - - - - - - -
21/06:30pm 22.9 E 14 16 - - 0.0 - - - - - - -
21/06:00pm 23.2 E 12 14 - - 0.0 - - - - - - -
21/05:30pm 23.3 E 13 15 - - 0.0 - - - - - - -
21/05:00pm 23.5 E 13 16 - - 0.0 - - - - - - -
21/04:30pm 23.6 E 12 15 - - 0.0 - - - - - - -
21/04:00pm 24.0 E 12 14 - - 0.0 - - - - - - -
21/03:30pm 24.0 E 12 14 - - 0.0 - - - - - - -
21/03:00pm 23.9 ESE 11 13 - - 0.0 - - - - - - -
21/02:30pm 24.1 SE 8 10 - - 0.0 - - - - - - -
21/02:00pm 23.7 SSE 8 9 - - 0.0 - - - - - - -
21/01:30pm 23.1 S 9 9 - - 0.0 - - - - - - -
21/01:00pm 23.0 S 10 11 - - 0.0 - - - - - - -
21/12:30pm 22.7 S 10 11 - - 0.0 - - - - - - -
21/12:00pm 22.7 S 9 10 - - 0.0 - - - - - - -
21/11:30am 22.6 S 8 9 - - 0.0 - - - - - - -
21/11:00am 22.6 S 8 9 - - 0.0 - - - - - - -
21/10:30am 21.9 S 8 9 - - 0.0 - - - - - - -
21/10:00am 21.9 S 6 7 - - 0.0 - - - - - - -
21/09:30am 21.4 S 6 7 - - 0.0 - - - - - - -
21/09:00am 20.8 S 5 7 - - 0.0 - - - - - - -
21/08:30am 20.3 SSW 4 6 - - 0.0 - - - - - - -
21/08:00am 20.8 SSE 1 4 - - 0.0 - - - - - - -
21/07:30am 19.4 W 2 3 - - 0.0 - - - - - - -
21/07:00am 19.2 WSW 1 1 - - 0.0 - - - - - - -
21/06:30am 19.0 W 3 3 - - 0.0 - - - - - - -
21/06:00am 19.3 NW 1 1 - - 0.0 - - - - - - -
21/05:30am 19.5 SSW 2 3 - - 0.0 - - - - - - -

Other Formats:

Comma delimited format used in spreadsheet applications
http://www.bom.gov.au/fwo/IDN60701/IDN60701.94774.axf

JavaScript Object Notation format (JSON) in row-major order
http://www.bom.gov.au/fwo/IDN60701/IDN60701.94774.json